sensor_id;sensor_type;location;lat;lon;timestamp;pressure;altitude;pressure_sealevel;temperature;humidity
81352;BME280;70809;52.184;13.422;2024-02-15T00:00:00;101425.91;;;8.29;100.00
81352;BME280;70809;52.184;13.422;2024-02-15T00:01:04;101425.75;;;8.24;100.00
81352;BME280;70809;52.184;13.422;2024-02-15T00:02:06;101429.59;;;8.34;100.00
81352;BME280;70809;52.184;13.422;2024-02-15T00:03:08;101420.50;;;8.50;100.00
81352;BME280;70809;52.184;13.422;2024-02-15T00:04:10;101422.66;;;8.62;100.00
81352;BME280;70809;52.184;13.422;2024-02-15T00:05:11;101424.13;;;8.54;100.00
81352;BME280;70809;52.184;13.422;2024-02-15T00:06:13;101422.50;;;8.57;100.00
81352;BME280;70809;52.184;13.422;2024-02-15T00:07:15;101424.00;;;8.49;100.00
81352;BME280;70809;52.184;13.422;2024-02-15T00:08:18;101428.50;;;8.53;100.00
81352;BME280;70809;52.184;13.422;2024-02-15T00:09:19;101419.22;;;8.64;100.00
81352;BME280;70809;52.184;13.422;2024-02-15T00:10:21;101424.13;;;8.54;100.00
81352;BME280;70809;52.184;13.422;2024-02-15T00:11:23;101425.16;;;8.59;100.00
81352;BME280;70809;52.184;13.422;2024-02-15T00:12:24;101422.84;;;8.68;100.00
81352;BME280;70809;52.184;13.422;2024-02-15T00:13:26;101422.22;;;8.76;100.00
81352;BME280;70809;52.184;13.422;2024-02-15T00:14:27;101417.31;;;8.87;100.00
81352;BME280;70809;52.184;13.422;2024-02-15T00:15:29;101418.19;;;8.88;100.00
81352;BME280;70809;52.184;13.422;2024-02-15T00:16:31;101426.81;;;8.82;100.00
81352;BME280;70809;52.184;13.422;2024-02-15T00:17:33;101424.25;;;8.84;100.00
81352;BME280;70809;52.184;13.422;2024-02-15T00:18:35;101426.38;;;8.68;100.00
81352;BME280;70809;52.184;13.422;2024-02-15T00:19:37;101426.44;;;8.71;100.00
81352;BME280;70809;52.184;13.422;2024-02-15T00:20:38;101420.41;;;8.74;100.00
81352;BME280;70809;52.184;13.422;2024-02-15T00:21:42;101422.34;;;8.80;100.00
81352;BME280;70809;52.184;13.422;2024-02-15T00:22:44;101413.44;;;8.76;100.00
81352;BME280;70809;52.184;13.422;2024-02-15T00:23:47;101426.56;;;8.74;100.00
81352;BME280;70809;52.184;13.422;2024-02-15T00:24:49;101426.94;;;8.60;100.00
81352;BME280;70809;52.184;13.422;2024-02-15T00:25:50;101425.47;;;8.68;100.00
81352;BME280;70809;52.184;13.422;2024-02-15T00:26:52;101434.78;;;8.84;100.00
81352;BME280;70809;52.184;13.422;2024-02-15T00:27:53;101430.81;;;8.71;100.00
81352;BME280;70809;52.184;13.422;2024-02-15T00:28:55;101420.94;;;8.37;100.00
81352;BME280;70809;52.184;13.422;2024-02-15T00:29:56;101420.78;;;8.59;100.00
81352;BME280;70809;52.184;13.422;2024-02-15T00:30:58;101420.28;;;8.71;100.00
81352;BME280;70809;52.184;13.422;2024-02-15T00:32:00;101427.44;;;8.48;100.00
81352;BME280;70809;52.184;13.422;2024-02-15T00:33:02;101434.81;;;8.58;100.00
81352;BME280;70809;52.184;13.422;2024-02-15T00:34:04;101429.34;;;8.52;100.00
81352;BME280;70809;52.184;13.422;2024-02-15T00:35:07;101419.91;;;8.59;100.00
81352;BME280;70809;52.184;13.422;2024-02-15T00:36:10;101419.59;;;8.76;100.00
81352;BME280;70809;52.184;13.422;2024-02-15T00:37:12;101417.34;;;8.60;100.00
81352;BME280;70809;52.184;13.422;2024-02-15T00:38:13;101420.94;;;8.64;100.00
81352;BME280;70809;52.184;13.422;2024-02-15T00:39:16;101415.63;;;8.62;100.00
81352;BME280;70809;52.184;13.422;2024-02-15T00:40:18;101420.44;;;8.75;100.00
81352;BME280;70809;52.184;13.422;2024-02-15T00:41:20;101421.78;;;8.90;100.00
81352;BME280;70809;52.184;13.422;2024-02-15T00:42:21;101418.44;;;8.67;100.00
81352;BME280;70809;52.184;13.422;2024-02-15T00:43:23;101409.72;;;8.69;100.00
81352;BME280;70809;52.184;13.422;2024-02-15T00:44:24;101413.69;;;8.57;100.00
81352;BME280;70809;52.184;13.422;2024-02-15T00:45:26;101423.09;;;8.75;100.00
81352;BME280;70809;52.184;13.422;2024-02-15T00:46:28;101418.69;;;8.76;100.00
81352;BME280;70809;52.184;13.422;2024-02-15T00:47:29;101427.97;;;8.90;100.00
81352;BME280;70809;52.184;13.422;2024-02-15T00:48:31;101421.88;;;8.93;100.00
81352;BME280;70809;52.184;13.422;2024-02-15T00:49:33;101420.91;;;8.89;100.00
81352;BME280;70809;52.184;13.422;2024-02-15T00:50:34;101424.03;;;8.77;100.00
81352;BME280;70809;52.184;13.422;2024-02-15T00:51:36;101425.69;;;8.74;100.00
81352;BME280;70809;52.184;13.422;2024-02-15T00:52:38;101426.75;;;8.54;100.00
81352;BME280;70809;52.184;13.422;2024-02-15T00:53:40;101431.47;;;8.64;100.00
81352;BME280;70809;52.184;13.422;2024-02-15T00:54:43;101429.34;;;8.52;100.00
81352;BME280;70809;52.184;13.422;2024-02-15T00:55:44;101437.97;;;8.48;100.00
81352;BME280;70809;52.184;13.422;2024-02-15T00:56:46;101435.78;;;8.60;100.00
81352;BME280;70809;52.184;13.422;2024-02-15T00:57:48;101439.00;;;8.78;100.00
81352;BME280;70809;52.184;13.422;2024-02-15T00:58:49;101433.84;;;8.55;100.00
81352;BME280;70809;52.184;13.422;2024-02-15T00:59:51;101433.53;;;8.72;100.00
81352;BME280;70809;52.184;13.422;2024-02-15T01:00:52;101443.31;;;8.49;100.00
81352;BME280;70809;52.184;13.422;2024-02-15T01:01:54;101435.41;;;8.49;100.00
81352;BME280;70809;52.184;13.422;2024-02-15T01:02:56;101428.34;;;8.48;100.00
81352;BME280;70809;52.184;13.422;2024-02-15T01:03:57;101436.78;;;8.65;100.00
81352;BME280;70809;52.184;13.422;2024-02-15T01:04:59;101439.69;;;8.46;100.00
81352;BME280;70809;52.184;13.422;2024-02-15T01:06:01;101434.94;;;8.36;100.00
81352;BME280;70809;52.184;13.422;2024-02-15T01:07:03;101434.78;;;8.57;100.00
81352;BME280;70809;52.184;13.422;2024-02-15T01:08:05;101429.16;;;8.46;100.00
81352;BME280;70809;52.184;13.422;2024-02-15T01:09:06;101432.13;;;8.57;100.00
81352;BME280;70809;52.184;13.422;2024-02-15T01:10:10;101430.75;;;8.68;100.00
81352;BME280;70809;52.184;13.422;2024-02-15T01:11:11;101431.84;;;8.74;100.00
81352;BME280;70809;52.184;13.422;2024-02-15T01:12:13;101438.84;;;8.74;100.00
81352;BME280;70809;52.184;13.422;2024-02-15T01:13:15;101439.22;;;8.59;100.00
81352;BME280;70809;52.184;13.422;2024-02-15T01:14:17;101429.66;;;8.61;100.00
81352;BME280;70809;52.184;13.422;2024-02-15T01:15:18;101430.63;;;8.65;100.00
81352;BME280;70809;52.184;13.422;2024-02-15T01:16:20;101430.28;;;8.81;100.00
81352;BME280;70809;52.184;13.422;2024-02-15T01:17:22;101432.22;;;8.87;100.00
81352;BME280;70809;52.184;13.422;2024-02-15T01:18:23;101428.81;;;8.89;100.00
81352;BME280;70809;52.184;13.422;2024-02-15T01:19:25;101420.38;;;9.01;100.00
81352;BME280;70809;52.184;13.422;2024-02-15T01:20:26;101430.25;;;8.80;100.00
81352;BME280;70809;52.184;13.422;2024-02-15T01:21:28;101430.53;;;8.89;100.00
81352;BME280;70809;52.184;13.422;2024-02-15T01:22:30;101426.28;;;8.94;100.00
81352;BME280;70809;52.184;13.422;2024-02-15T01:23:32;101427.63;;;8.80;100.00
81352;BME280;70809;52.184;13.422;2024-02-15T01:24:34;101424.03;;;8.77;100.00
81352;BME280;70809;52.184;13.422;2024-02-15T01:25:37;101422.53;;;8.86;100.00
81352;BME280;70809;52.184;13.422;2024-02-15T01:26:38;101418.84;;;8.81;100.00
81352;BME280;70809;52.184;13.422;2024-02-15T01:27:40;101416.56;;;8.91;100.00
81352;BME280;70809;52.184;13.422;2024-02-15T01:28:41;101421.13;;;8.97;100.00
81352;BME280;70809;52.184;13.422;2024-02-15T01:29:43;101422.34;;;9.08;100.00
81352;BME280;70809;52.184;13.422;2024-02-15T01:30:45;101424.31;;;9.15;100.00
81352;BME280;70809;52.184;13.422;2024-02-15T01:31:46;101418.06;;;9.12;100.00
81352;BME280;70809;52.184;13.422;2024-02-15T01:32:48;101416.22;;;9.09;100.00
81352;BME280;70809;52.184;13.422;2024-02-15T01:33:50;101412.94;;;9.16;100.00
81352;BME280;70809;52.184;13.422;2024-02-15T01:34:52;101410.09;;;9.10;100.00
81352;BME280;70809;52.184;13.422;2024-02-15T01:35:53;101415.41;;;9.12;100.00
81352;BME280;70809;52.184;13.422;2024-02-15T01:36:55;101416.22;;;9.09;100.00
81352;BME280;70809;52.184;13.422;2024-02-15T01:37:57;101414.84;;;8.93;100.00
81352;BME280;70809;52.184;13.422;2024-02-15T01:38:58;101414.16;;;8.99;100.00
81352;BME280;70809;52.184;13.422;2024-02-15T01:40:00;101419.00;;;8.85;100.00
81352;BME280;70809;52.184;13.422;2024-02-15T01:41:03;101417.06;;;8.80;100.00
81352;BME280;70809;52.184;13.422;2024-02-15T01:42:05;101415.69;;;8.91;100.00
81352;BME280;70809;52.184;13.422;2024-02-15T01:43:06;101421.59;;;8.84;100.00
81352;BME280;70809;52.184;13.422;2024-02-15T01:44:08;101421.00;;;8.65;100.00
81352;BME280;70809;52.184;13.422;2024-02-15T01:45:09;101421.31;;;8.74;100.00
81352;BME280;70809;52.184;13.422;2024-02-15T01:46:11;101410.44;;;8.65;100.00
81352;BME280;70809;52.184;13.422;2024-02-15T01:47:13;101419.94;;;8.87;100.00
81352;BME280;70809;52.184;13.422;2024-02-15T01:48:15;101420.19;;;8.95;100.00
81352;BME280;70809;52.184;13.422;2024-02-15T01:49:17;101416.06;;;9.03;100.00
81352;BME280;70809;52.184;13.422;2024-02-15T01:50:20;101411.66;;;9.03;100.00
81352;BME280;70809;52.184;13.422;2024-02-15T01:51:23;101409.56;;;8.92;100.00
81352;BME280;70809;52.184;13.422;2024-02-15T01:52:27;101400.78;;;8.93;100.00
81352;BME280;70809;52.184;13.422;2024-02-15T01:53:29;101415.94;;;9.00;100.00
81352;BME280;70809;52.184;13.422;2024-02-15T01:54:32;101403.78;;;8.76;100.00
81352;BME280;70809;52.184;13.422;2024-02-15T01:55:34;101406.63;;;8.83;100.00
81352;BME280;70809;52.184;13.422;2024-02-15T01:56:37;101403.00;;;8.79;100.00
81352;BME280;70809;52.184;13.422;2024-02-15T01:57:44;101410.75;;;8.74;100.00
81352;BME280;70809;52.184;13.422;2024-02-15T01:58:45;101404.63;;;8.75;100.00
81352;BME280;70809;52.184;13.422;2024-02-15T01:59:50;101404.06;;;8.57;100.00
81352;BME280;70809;52.184;13.422;2024-02-15T02:00:52;101403.81;;;8.49;100.00
81352;BME280;70809;52.184;13.422;2024-02-15T02:01:54;101407.25;;;8.74;100.00
81352;BME280;70809;52.184;13.422;2024-02-15T02:02:57;101401.53;;;8.60;100.00
81352;BME280;70809;52.184;13.422;2024-02-15T02:04:00;101408.31;;;8.54;100.00
81352;BME280;70809;52.184;13.422;2024-02-15T02:05:01;101399.09;;;8.66;100.00
81352;BME280;70809;52.184;13.422;2024-02-15T02:06:03;101402.44;;;8.61;100.00
81352;BME280;70809;52.184;13.422;2024-02-15T02:07:05;101405.50;;;8.74;100.00
81352;BME280;70809;52.184;13.422;2024-02-15T02:08:10;101405.16;;;8.64;100.00
81352;BME280;70809;52.184;13.422;2024-02-15T02:09:12;101402.00;;;8.48;100.00
81352;BME280;70809;52.184;13.422;2024-02-15T02:10:15;101396.66;;;8.45;100.00
81352;BME280;70809;52.184;13.422;2024-02-15T02:11:16;101397.06;;;8.58;100.00
81352;BME280;70809;52.184;13.422;2024-02-15T02:12:20;101399.91;;;8.65;100.00
81352;BME280;70809;52.184;13.422;2024-02-15T02:13:22;101397.06;;;8.58;100.00
81352;BME280;70809;52.184;13.422;2024-02-15T02:14:23;101393.13;;;8.45;100.00
81352;BME280;70809;52.184;13.422;2024-02-15T02:15:25;101402.13;;;8.51;100.00
81352;BME280;70809;52.184;13.422;2024-02-15T02:16:27;101390.78;;;8.54;100.00
81352;BME280;70809;52.184;13.422;2024-02-15T02:17:29;101387.00;;;8.46;100.00
81352;BME280;70809;52.184;13.422;2024-02-15T02:18:31;101399.88;;;8.37;100.00
81352;BME280;70809;52.184;13.422;2024-02-15T02:19:32;101397.00;;;8.56;100.00
81352;BME280;70809;52.184;13.422;2024-02-15T02:20:34;101390.03;;;8.58;100.00
81352;BME280;70809;52.184;13.422;2024-02-15T02:21:36;101400.34;;;8.77;100.00
81352;BME280;70809;52.184;13.422;2024-02-15T02:22:38;101395.63;;;8.67;100.00
81352;BME280;70809;52.184;13.422;2024-02-15T02:23:40;101402.13;;;8.78;100.00
81352;BME280;70809;52.184;13.422;2024-02-15T02:24:57;101400.75;;;8.91;100.00
81352;BME280;70809;52.184;13.422;2024-02-15T02:25:58;101404.56;;;9.01;100.00
81352;BME280;70809;52.184;13.422;2024-02-15T02:27:00;101396.47;;;8.66;100.00
81352;BME280;70809;52.184;13.422;2024-02-15T02:28:02;101398.91;;;8.60;100.00
81352;BME280;70809;52.184;13.422;2024-02-15T02:29:04;101398.59;;;8.51;100.00
81352;BME280;70809;52.184;13.422;2024-02-15T02:30:13;101392.09;;;8.40;100.00
81352;BME280;70809;52.184;13.422;2024-02-15T02:31:15;101403.81;;;8.49;100.00
81352;BME280;70809;52.184;13.422;2024-02-15T02:32:17;101400.34;;;8.50;100.00
81352;BME280;70809;52.184;13.422;2024-02-15T02:33:18;101400.50;;;8.55;100.00
81352;BME280;70809;52.184;13.422;2024-02-15T02:34:22;101405.50;;;8.47;100.00
81352;BME280;70809;52.184;13.422;2024-02-15T02:35:23;101399.72;;;8.59;100.00
81352;BME280;70809;52.184;13.422;2024-02-15T02:36:25;101406.13;;;8.40;100.00
81352;BME280;70809;52.184;13.422;2024-02-15T02:37:27;101395.75;;;8.45;100.00
81352;BME280;70809;52.184;13.422;2024-02-15T02:38:28;101400.13;;;8.44;100.00
81352;BME280;70809;52.184;13.422;2024-02-15T02:39:30;101399.34;;;8.47;100.00
81352;BME280;70809;52.184;13.422;2024-02-15T02:40:33;101403.88;;;8.51;100.00
81352;BME280;70809;52.184;13.422;2024-02-15T02:41:34;101400.41;;;8.54;100.00
81352;BME280;70809;52.184;13.422;2024-02-15T02:42:36;101395.91;;;8.49;100.00
81352;BME280;70809;52.184;13.422;2024-02-15T02:43:47;101398.75;;;8.56;100.00
81352;BME280;70809;52.184;13.422;2024-02-15T02:44:49;101395.97;;;8.51;100.00
81352;BME280;70809;52.184;13.422;2024-02-15T02:45:50;101397.28;;;8.65;100.00
81352;BME280;70809;52.184;13.422;2024-02-15T02:46:52;101394.47;;;8.59;100.00
81352;BME280;70809;52.184;13.422;2024-02-15T02:47:54;101392.41;;;8.49;100.00
81352;BME280;70809;52.184;13.422;2024-02-15T02:48:56;101396.63;;;8.44;100.00
81352;BME280;70809;52.184;13.422;2024-02-15T02:50:00;101389.19;;;8.59;100.00
81352;BME280;70809;52.184;13.422;2024-02-15T02:51:01;101403.59;;;8.70;100.00
81352;BME280;70809;52.184;13.422;2024-02-15T02:52:04;101400.97;;;8.70;100.00
81352;BME280;70809;52.184;13.422;2024-02-15T02:53:05;101400.41;;;8.54;100.00
81352;BME280;70809;52.184;13.422;2024-02-15T02:54:07;101405.19;;;8.65;100.00
81352;BME280;70809;52.184;13.422;2024-02-15T02:55:09;101395.50;;;8.64;100.00
81352;BME280;70809;52.184;13.422;2024-02-15T02:56:12;101404.22;;;8.62;100.00
81352;BME280;70809;52.184;13.422;2024-02-15T02:57:13;101397.25;;;8.64;100.00
81352;BME280;70809;52.184;13.422;2024-02-15T02:58:15;101399.53;;;8.80;100.00
81352;BME280;70809;52.184;13.422;2024-02-15T02:59:17;101404.44;;;8.69;100.00
81352;BME280;70809;52.184;13.422;2024-02-15T03:00:20;101407.09;;;8.69;100.00
81352;BME280;70809;52.184;13.422;2024-02-15T03:01:22;101394.38;;;8.56;100.00
81352;BME280;70809;52.184;13.422;2024-02-15T03:02:24;101401.38;;;8.56;100.00
81352;BME280;70809;52.184;13.422;2024-02-15T03:03:26;101403.31;;;8.61;100.00
81352;BME280;70809;52.184;13.422;2024-02-15T03:04:27;101400.88;;;8.67;100.00
81352;BME280;70809;52.184;13.422;2024-02-15T03:05:29;101394.53;;;8.61;100.00
81352;BME280;70809;52.184;13.422;2024-02-15T03:06:31;101401.78;;;8.68;100.00
81352;BME280;70809;52.184;13.422;2024-02-15T03:07:33;101401.31;;;8.81;100.00
81352;BME280;70809;52.184;13.422;2024-02-15T03:08:34;101395.88;;;8.76;100.00
81352;BME280;70809;52.184;13.422;2024-02-15T03:09:36;101403.94;;;8.81;100.00
81352;BME280;70809;52.184;13.422;2024-02-15T03:10:40;101402.13;;;8.78;100.00
81352;BME280;70809;52.184;13.422;2024-02-15T03:11:43;101411.25;;;8.90;100.00
81352;BME280;70809;52.184;13.422;2024-02-15T03:12:45;101408.88;;;8.70;100.00
81352;BME280;70809;52.184;13.422;2024-02-15T03:13:47;101404.44;;;8.69;100.00
81352;BME280;70809;52.184;13.422;2024-02-15T03:14:48;101408.66;;;8.64;100.00
81352;BME280;70809;52.184;13.422;2024-02-15T03:15:50;101401.63;;;8.63;100.00
81352;BME280;70809;52.184;13.422;2024-02-15T03:16:52;101415.03;;;8.71;100.00
81352;BME280;70809;52.184;13.422;2024-02-15T03:17:53;101407.59;;;8.58;100.00
81352;BME280;70809;52.184;13.422;2024-02-15T03:18:55;101406.03;;;8.64;100.00
81352;BME280;70809;52.184;13.422;2024-02-15T03:19:57;101408.66;;;8.64;100.00
81352;BME280;70809;52.184;13.422;2024-02-15T03:20:58;101406.94;;;8.65;100.00
81352;BME280;70809;52.184;13.422;2024-02-15T03:22:00;101404.38;;;8.66;100.00
81352;BME280;70809;52.184;13.422;2024-02-15T03:23:02;101406.16;;;8.67;100.00
81352;BME280;70809;52.184;13.422;2024-02-15T03:24:04;101408.78;;;8.67;100.00
81352;BME280;70809;52.184;13.422;2024-02-15T03:25:07;101410.72;;;8.73;100.00
81352;BME280;70809;52.184;13.422;2024-02-15T03:26:08;101412.53;;;8.75;100.00
81352;BME280;70809;52.184;13.422;2024-02-15T03:27:11;101409.25;;;8.83;100.00
81352;BME280;70809;52.184;13.422;2024-02-15T03:28:13;101416.53;;;8.90;100.00
81352;BME280;70809;52.184;13.422;2024-02-15T03:29:14;101411.31;;;8.64;100.00
81352;BME280;70809;52.184;13.422;2024-02-15T03:30:16;101403.25;;;8.60;100.00
81352;BME280;70809;52.184;13.422;2024-02-15T03:31:18;101405.19;;;8.65;100.00
81352;BME280;70809;52.184;13.422;2024-02-15T03:32:19;101408.41;;;8.55;100.00
81352;BME280;70809;52.184;13.422;2024-02-15T03:33:21;101404.59;;;8.74;100.00
81352;BME280;70809;52.184;13.422;2024-02-15T03:34:23;101403.78;;;8.76;100.00
81352;BME280;70809;52.184;13.422;2024-02-15T03:35:26;101410.66;;;9.00;100.00
81352;BME280;70809;52.184;13.422;2024-02-15T03:36:28;101406.41;;;9.03;100.00
81352;BME280;70809;52.184;13.422;2024-02-15T03:37:29;101408.50;;;9.15;100.00
81352;BME280;70809;52.184;13.422;2024-02-15T03:38:31;101409.94;;;9.04;100.00
81352;BME280;70809;52.184;13.422;2024-02-15T03:39:33;101402.97;;;9.06;100.00
81352;BME280;70809;52.184;13.422;2024-02-15T03:40:34;101405.66;;;9.08;100.00
81352;BME280;70809;52.184;13.422;2024-02-15T03:41:38;101402.56;;;8.94;100.00
81352;BME280;70809;52.184;13.422;2024-02-15T03:42:41;101400.22;;;9.03;100.00
81352;BME280;70809;52.184;13.422;2024-02-15T03:43:42;101415.66;;;9.19;100.00
81352;BME280;70809;52.184;13.422;2024-02-15T03:44:44;101404.06;;;9.13;100.00
81352;BME280;70809;52.184;13.422;2024-02-15T03:45:46;101409.66;;;8.95;100.00
81352;BME280;70809;52.184;13.422;2024-02-15T03:46:47;101408.69;;;8.93;100.00
81352;BME280;70809;52.184;13.422;2024-02-15T03:47:49;101407.81;;;8.92;100.00
81352;BME280;70809;52.184;13.422;2024-02-15T03:48:51;101405.66;;;9.08;100.00
81352;BME280;70809;52.184;13.422;2024-02-15T03:49:53;101409.03;;;9.03;100.00
81352;BME280;70809;52.184;13.422;2024-02-15T03:50:54;101407.09;;;8.98;100.00
81352;BME280;70809;52.184;13.422;2024-02-15T03:51:56;101412.28;;;8.95;100.00
81352;BME280;70809;52.184;13.422;2024-02-15T03:52:58;101399.56;;;9.10;100.00
81352;BME280;70809;52.184;13.422;2024-02-15T03:53:59;101408.16;;;9.03;100.00
81352;BME280;70809;52.184;13.422;2024-02-15T03:55:01;101408.66;;;9.20;100.00
81352;BME280;70809;52.184;13.422;2024-02-15T03:56:03;101398.59;;;9.37;100.00
81352;BME280;70809;52.184;13.422;2024-02-15T03:57:05;101403.19;;;9.44;100.00
81352;BME280;70809;52.184;13.422;2024-02-15T03:58:08;101405.31;;;9.25;100.00
81352;BME280;70809;52.184;13.422;2024-02-15T03:59:10;101406.34;;;9.30;100.00
81352;BME280;70809;52.184;13.422;2024-02-15T04:00:12;101406.91;;;9.20;100.00
81352;BME280;70809;52.184;13.422;2024-02-15T04:01:17;101411.59;;;9.00;100.00
81352;BME280;70809;52.184;13.422;2024-02-15T04:02:19;101405.66;;;9.08;100.00
81352;BME280;70809;52.184;13.422;2024-02-15T04:03:20;101418.78;;;9.06;100.00
81352;BME280;70809;52.184;13.422;2024-02-15T04:04:22;101414.94;;;8.95;100.00
81352;BME280;70809;52.184;13.422;2024-02-15T04:05:24;101410.09;;;8.82;100.00
81352;BME280;70809;52.184;13.422;2024-02-15T04:06:25;101407.72;;;8.89;100.00
81352;BME280;70809;52.184;13.422;2024-02-15T04:07:27;101413.41;;;9.03;100.00
81352;BME280;70809;52.184;13.422;2024-02-15T04:08:29;101410.41;;;9.19;100.00
81352;BME280;70809;52.184;13.422;2024-02-15T04:09:31;101412.66;;;9.07;100.00
81352;BME280;70809;52.184;13.422;2024-02-15T04:10:32;101412.72;;;9.09;100.00
81352;BME280;70809;52.184;13.422;2024-02-15T04:11:34;101402.69;;;8.97;100.00
81352;BME280;70809;52.184;13.422;2024-02-15T04:12:35;101409.50;;;9.19;100.00
81352;BME280;70809;52.184;13.422;2024-02-15T04:13:38;101408.09;;;9.01;100.00
81352;BME280;70809;52.184;13.422;2024-02-15T04:14:40;101410.56;;;8.95;100.00
81352;BME280;70809;52.184;13.422;2024-02-15T04:15:43;101401.47;;;9.14;100.00
81352;BME280;70809;52.184;13.422;2024-02-15T04:16:44;101406.22;;;9.27;100.00
81352;BME280;70809;52.184;13.422;2024-02-15T04:17:46;101404.59;;;9.31;100.00
81352;BME280;70809;52.184;13.422;2024-02-15T04:18:48;101400.53;;;9.12;100.00
81352;BME280;70809;52.184;13.422;2024-02-15T04:19:50;101405.09;;;9.18;100.00
81352;BME280;70809;52.184;13.422;2024-02-15T04:20:52;101404.44;;;9.26;100.00
81352;BME280;70809;52.184;13.422;2024-02-15T04:21:54;101405.19;;;9.22;100.00
81352;BME280;70809;52.184;13.422;2024-02-15T04:22:55;101402.25;;;9.12;100.00
81352;BME280;70809;52.184;13.422;2024-02-15T04:23:57;101399.31;;;9.01;100.00
81352;BME280;70809;52.184;13.422;2024-02-15T04:24:59;101397.28;;;9.22;100.00
81352;BME280;70809;52.184;13.422;2024-02-15T04:26:00;101400.59;;;9.15;100.00
81352;BME280;70809;52.184;13.422;2024-02-15T04:27:02;101396.59;;;8.99;100.00
81352;BME280;70809;52.184;13.422;2024-02-15T04:28:04;101397.31;;;8.94;100.00
81352;BME280;70809;52.184;13.422;2024-02-15T04:29:07;101393.75;;;8.92;100.00
81352;BME280;70809;52.184;13.422;2024-02-15T04:30:10;101391.41;;;9.01;100.00
81352;BME280;70809;52.184;13.422;2024-02-15T04:31:12;101394.97;;;9.03;100.00
81352;BME280;70809;52.184;13.422;2024-02-15T04:32:14;101399.72;;;8.86;100.00
81352;BME280;70809;52.184;13.422;2024-02-15T04:33:16;101400.53;;;8.84;100.00
81352;BME280;70809;52.184;13.422;2024-02-15T04:34:18;101401.78;;;8.96;100.00
81352;BME280;70809;52.184;13.422;2024-02-15T04:35:20;101399.94;;;8.94;100.00
81352;BME280;70809;52.184;13.422;2024-02-15T04:36:22;101397.88;;;9.12;100.00
81352;BME280;70809;52.184;13.422;2024-02-15T04:37:24;101396.22;;;9.16;100.00
81352;BME280;70809;52.184;13.422;2024-02-15T04:38:25;101399.53;;;9.09;100.00
81352;BME280;70809;52.184;13.422;2024-02-15T04:39:27;101403.88;;;9.07;100.00
81352;BME280;70809;52.184;13.422;2024-02-15T04:40:29;101402.13;;;9.07;100.00
81352;BME280;70809;52.184;13.422;2024-02-15T04:41:30;101398.84;;;9.16;100.00
81352;BME280;70809;52.184;13.422;2024-02-15T04:42:32;101401.03;;;9.29;100.00
81352;BME280;70809;52.184;13.422;2024-02-15T04:43:34;101400.56;;;9.44;100.00
81352;BME280;70809;52.184;13.422;2024-02-15T04:44:37;101404.16;;;9.17;100.00
81352;BME280;70809;52.184;13.422;2024-02-15T04:45:39;101404.88;;;9.12;100.00
81352;BME280;70809;52.184;13.422;2024-02-15T04:46:40;101401.81;;;9.26;100.00
81352;BME280;70809;52.184;13.422;2024-02-15T04:47:42;101403.75;;;9.32;100.00
81352;BME280;70809;52.184;13.422;2024-02-15T04:48:44;101405.31;;;9.25;100.00
81352;BME280;70809;52.184;13.422;2024-02-15T04:49:46;101406.69;;;9.43;100.00
81352;BME280;70809;52.184;13.422;2024-02-15T04:50:47;101409.50;;;9.49;100.00
81352;BME280;70809;52.184;13.422;2024-02-15T04:51:49;101409.06;;;9.64;100.00
81352;BME280;70809;52.184;13.422;2024-02-15T04:52:51;101400.66;;;9.47;100.00
81352;BME280;70809;52.184;13.422;2024-02-15T04:53:52;101408.13;;;9.63;100.00
81352;BME280;70809;52.184;13.422;2024-02-15T04:54:54;101403.34;;;9.48;100.00
81352;BME280;70809;52.184;13.422;2024-02-15T04:55:55;101407.09;;;9.26;100.00
81352;BME280;70809;52.184;13.422;2024-02-15T04:56:57;101405.53;;;9.33;100.00
81352;BME280;70809;52.184;13.422;2024-02-15T04:57:58;101403.16;;;9.42;100.00
81352;BME280;70809;52.184;13.422;2024-02-15T04:59:00;101398.97;;;9.49;100.00
81352;BME280;70809;52.184;13.422;2024-02-15T05:00:04;101406.03;;;9.20;100.00
81352;BME280;70809;52.184;13.422;2024-02-15T05:01:06;101403.97;;;9.11;100.00
81352;BME280;70809;52.184;13.422;2024-02-15T05:02:08;101404.88;;;9.12;100.00
81352;BME280;70809;52.184;13.422;2024-02-15T05:03:11;101405.88;;;9.15;100.00
81352;BME280;70809;52.184;13.422;2024-02-15T05:04:13;101406.06;;;9.21;100.00
81352;BME280;70809;52.184;13.422;2024-02-15T05:05:15;101404.75;;;9.36;100.00
81352;BME280;70809;52.184;13.422;2024-02-15T05:06:17;101405.16;;;9.21;100.00
81352;BME280;70809;52.184;13.422;2024-02-15T05:07:18;101407.47;;;9.10;100.00
81352;BME280;70809;52.184;13.422;2024-02-15T05:08:20;101404.41;;;9.25;100.00
81352;BME280;70809;52.184;13.422;2024-02-15T05:09:22;101411.06;;;9.12;100.00
81352;BME280;70809;52.184;13.422;2024-02-15T05:10:23;101398.16;;;9.21;100.00
81352;BME280;70809;52.184;13.422;2024-02-15T05:11:25;101406.53;;;9.37;100.00
81352;BME280;70809;52.184;13.422;2024-02-15T05:12:27;101404.31;;;9.22;100.00
81352;BME280;70809;52.184;13.422;2024-02-15T05:13:29;101412.84;;;9.13;100.00
81352;BME280;70809;52.184;13.422;2024-02-15T05:14:31;101407.81;;;9.21;100.00
81352;BME280;70809;52.184;13.422;2024-02-15T05:15:34;101407.94;;;9.25;100.00
81352;BME280;70809;52.184;13.422;2024-02-15T05:16:35;101405.38;;;9.28;100.00
81352;BME280;70809;52.184;13.422;2024-02-15T05:17:38;101405.94;;;9.47;100.00
81352;BME280;70809;52.184;13.422;2024-02-15T05:18:40;101410.59;;;9.57;100.00
81352;BME280;70809;52.184;13.422;2024-02-15T05:19:42;101410.94;;;9.38;100.00